Houstonville, North Carolina
Current Conditions -  °F | °C
As of 11:55 PM on Friday 21 Nov 2014 (Local Time) from KSVH Reporting Station
Clear Clear  
Wind Chill: 30°   Ceiling: Unl
Heat Index: 30°   Visibility: 10mi
Dew Point: 16°   Wind: 3mph
Humidity: 56%   Direction: 340°NNW
Pressure: 30.5"   Gusts: NA
Location:  35.9632°N, 80.7532°W
Report Text: KSVH 220455Z AUTO 34003KT 10SM CLR M01/M09 A3050 RMK AO2 T10131090 401121023
Loading
Personal Weather Stations






























Interactive Weather Map New forecast layout! Learn more

10-Day Weather Forecast

Advertisements
Track Severe Weather on mobile